sensor_id;sensor_type;location;lat;lon;timestamp;P1;durP1;ratioP1;P2;durP2;ratioP2
9449;SDS011;4763;48.370;10.874;2024-03-22T00:01:00;9.10;;;7.13;;
9449;SDS011;4763;48.370;10.874;2024-03-22T05:25:19;26.30;;;18.10;;
9449;SDS011;4763;48.370;10.874;2024-03-22T05:27:46;26.63;;;18.87;;
9449;SDS011;4763;48.370;10.874;2024-03-22T05:30:12;27.43;;;18.87;;
9449;SDS011;4763;48.370;10.874;2024-03-22T05:32:39;33.27;;;21.50;;
9449;SDS011;4763;48.370;10.874;2024-03-22T05:35:06;30.20;;;19.47;;
9449;SDS011;4763;48.370;10.874;2024-03-22T05:37:33;40.00;;;19.70;;
9449;SDS011;4763;48.370;10.874;2024-03-22T05:39:59;29.93;;;19.63;;
9449;SDS011;4763;48.370;10.874;2024-03-22T05:45:03;30.13;;;19.20;;
9449;SDS011;4763;48.370;10.874;2024-03-22T05:47:31;34.83;;;20.87;;
9449;SDS011;4763;48.370;10.874;2024-03-22T05:49:57;28.57;;;18.63;;
9449;SDS011;4763;48.370;10.874;2024-03-22T05:52:23;31.67;;;19.83;;
9449;SDS011;4763;48.370;10.874;2024-03-22T05:54:49;28.93;;;17.97;;
9449;SDS011;4763;48.370;10.874;2024-03-22T05:57:16;35.90;;;20.10;;
9449;SDS011;4763;48.370;10.874;2024-03-22T05:59:42;32.17;;;19.80;;
9449;SDS011;4763;48.370;10.874;2024-03-22T06:02:10;31.40;;;20.63;;
9449;SDS011;4763;48.370;10.874;2024-03-22T06:04:39;34.77;;;21.07;;
9449;SDS011;4763;48.370;10.874;2024-03-22T06:07:05;34.83;;;19.23;;
9449;SDS011;4763;48.370;10.874;2024-03-22T06:09:31;32.97;;;20.13;;
9449;SDS011;4763;48.370;10.874;2024-03-22T06:12:02;35.60;;;20.57;;
9449;SDS011;4763;48.370;10.874;2024-03-22T06:14:29;38.93;;;23.57;;
9449;SDS011;4763;48.370;10.874;2024-03-22T06:16:56;34.80;;;20.70;;
9449;SDS011;4763;48.370;10.874;2024-03-22T06:19:23;39.50;;;24.00;;
9449;SDS011;4763;48.370;10.874;2024-03-22T06:21:50;35.77;;;20.27;;
9449;SDS011;4763;48.370;10.874;2024-03-22T06:24:17;35.27;;;21.23;;
9449;SDS011;4763;48.370;10.874;2024-03-22T06:26:43;35.20;;;21.50;;
9449;SDS011;4763;48.370;10.874;2024-03-22T06:29:09;33.40;;;22.17;;
9449;SDS011;4763;48.370;10.874;2024-03-22T06:31:37;33.77;;;19.60;;
9449;SDS011;4763;48.370;10.874;2024-03-22T06:34:03;30.93;;;19.83;;
9449;SDS011;4763;48.370;10.874;2024-03-22T06:36:38;30.70;;;19.80;;
9449;SDS011;4763;48.370;10.874;2024-03-22T06:39:24;27.50;;;18.43;;
9449;SDS011;4763;48.370;10.874;2024-03-22T06:42:09;32.27;;;18.70;;
9449;SDS011;4763;48.370;10.874;2024-03-22T06:55:19;22.00;;;15.33;;
9449;SDS011;4763;48.370;10.874;2024-03-22T06:57:46;23.90;;;15.87;;
9449;SDS011;4763;48.370;10.874;2024-03-22T07:00:13;24.23;;;17.63;;
9449;SDS011;4763;48.370;10.874;2024-03-22T07:02:40;26.30;;;17.40;;
9449;SDS011;4763;48.370;10.874;2024-03-22T07:05:07;22.10;;;15.30;;
9449;SDS011;4763;48.370;10.874;2024-03-22T07:07:34;29.73;;;18.93;;
9449;SDS011;4763;48.370;10.874;2024-03-22T07:10:01;20.60;;;14.70;;
9449;SDS011;4763;48.370;10.874;2024-03-22T07:12:28;28.70;;;16.47;;
9449;SDS011;4763;48.370;10.874;2024-03-22T07:14:55;22.37;;;15.67;;
9449;SDS011;4763;48.370;10.874;2024-03-22T07:17:21;19.60;;;14.23;;
9449;SDS011;4763;48.370;10.874;2024-03-22T07:19:49;23.60;;;13.83;;
9449;SDS011;4763;48.370;10.874;2024-03-22T07:22:19;28.43;;;18.30;;
9449;SDS011;4763;48.370;10.874;2024-03-22T07:24:46;21.30;;;14.17;;
9449;SDS011;4763;48.370;10.874;2024-03-22T07:27:12;25.50;;;14.77;;
9449;SDS011;4763;48.370;10.874;2024-03-22T07:29:41;17.93;;;13.13;;
9449;SDS011;4763;48.370;10.874;2024-03-22T07:32:07;18.57;;;13.40;;
9449;SDS011;4763;48.370;10.874;2024-03-22T07:34:34;24.47;;;13.63;;
9449;SDS011;4763;48.370;10.874;2024-03-22T07:37:00;32.50;;;17.13;;
9449;SDS011;4763;48.370;10.874;2024-03-22T07:39:27;29.03;;;15.40;;
9449;SDS011;4763;48.370;10.874;2024-03-22T07:41:54;19.73;;;11.13;;
9449;SDS011;4763;48.370;10.874;2024-03-22T07:44:21;15.77;;;11.50;;
9449;SDS011;4763;48.370;10.874;2024-03-22T07:46:50;16.47;;;11.00;;
9449;SDS011;4763;48.370;10.874;2024-03-22T07:49:17;17.37;;;10.47;;
9449;SDS011;4763;48.370;10.874;2024-03-22T07:51:43;17.67;;;10.33;;
9449;SDS011;4763;48.370;10.874;2024-03-22T07:54:10;12.53;;;9.63;;
9449;SDS011;4763;48.370;10.874;2024-03-22T07:56:37;14.80;;;10.00;;
9449;SDS011;4763;48.370;10.874;2024-03-22T07:59:03;11.43;;;8.53;;
9449;SDS011;4763;48.370;10.874;2024-03-22T08:01:30;15.70;;;9.93;;
9449;SDS011;4763;48.370;10.874;2024-03-22T08:03:57;21.47;;;10.50;;
9449;SDS011;4763;48.370;10.874;2024-03-22T08:06:24;13.10;;;8.40;;
9449;SDS011;4763;48.370;10.874;2024-03-22T08:08:50;9.20;;;6.80;;
9449;SDS011;4763;48.370;10.874;2024-03-22T08:11:17;12.23;;;8.13;;
9449;SDS011;4763;48.370;10.874;2024-03-22T08:13:43;9.73;;;6.90;;
9449;SDS011;4763;48.370;10.874;2024-03-22T08:16:09;9.47;;;7.27;;
9449;SDS011;4763;48.370;10.874;2024-03-22T08:18:35;10.37;;;7.60;;
9449;SDS011;4763;48.370;10.874;2024-03-22T08:21:04;11.17;;;7.33;;
9449;SDS011;4763;48.370;10.874;2024-03-22T08:23:30;10.17;;;7.33;;
9449;SDS011;4763;48.370;10.874;2024-03-22T08:26:02;12.47;;;7.87;;
9449;SDS011;4763;48.370;10.874;2024-03-22T08:28:30;10.53;;;7.63;;
9449;SDS011;4763;48.370;10.874;2024-03-22T08:31:21;13.17;;;7.73;;
9449;SDS011;4763;48.370;10.874;2024-03-22T08:38:22;9.80;;;7.50;;
9449;SDS011;4763;48.370;10.874;2024-03-22T08:41:13;18.00;;;7.87;;
9449;SDS011;4763;48.370;10.874;2024-03-22T08:43:41;9.93;;;7.47;;
9449;SDS011;4763;48.370;10.874;2024-03-22T08:46:08;9.47;;;7.27;;
9449;SDS011;4763;48.370;10.874;2024-03-22T08:48:34;11.20;;;8.07;;
9449;SDS011;4763;48.370;10.874;2024-03-22T08:51:01;11.37;;;7.57;;
9449;SDS011;4763;48.370;10.874;2024-03-22T08:53:29;10.80;;;8.23;;
9449;SDS011;4763;48.370;10.874;2024-03-22T08:55:56;8.73;;;7.17;;
9449;SDS011;4763;48.370;10.874;2024-03-22T08:58:22;8.93;;;7.23;;
9449;SDS011;4763;48.370;10.874;2024-03-22T09:00:49;11.07;;;7.63;;
9449;SDS011;4763;48.370;10.874;2024-03-22T09:03:15;9.33;;;7.33;;
9449;SDS011;4763;48.370;10.874;2024-03-22T09:05:43;10.33;;;7.30;;
9449;SDS011;4763;48.370;10.874;2024-03-22T09:08:09;8.43;;;7.57;;
9449;SDS011;4763;48.370;10.874;2024-03-22T09:10:37;11.27;;;7.40;;
9449;SDS011;4763;48.370;10.874;2024-03-22T09:13:03;12.47;;;7.50;;
9449;SDS011;4763;48.370;10.874;2024-03-22T09:15:30;8.73;;;6.53;;
9449;SDS011;4763;48.370;10.874;2024-03-22T09:17:56;12.43;;;7.93;;
9449;SDS011;4763;48.370;10.874;2024-03-22T09:20:23;12.97;;;7.60;;
9449;SDS011;4763;48.370;10.874;2024-03-22T09:22:48;11.87;;;7.53;;
9449;SDS011;4763;48.370;10.874;2024-03-22T09:25:15;13.80;;;8.80;;
9449;SDS011;4763;48.370;10.874;2024-03-22T09:27:42;10.73;;;8.33;;
9449;SDS011;4763;48.370;10.874;2024-03-22T09:30:10;11.07;;;7.50;;
9449;SDS011;4763;48.370;10.874;2024-03-22T09:32:36;10.13;;;8.10;;
9449;SDS011;4763;48.370;10.874;2024-03-22T09:35:03;11.10;;;7.20;;
9449;SDS011;4763;48.370;10.874;2024-03-22T09:37:29;12.43;;;7.97;;
9449;SDS011;4763;48.370;10.874;2024-03-22T09:40:04;10.73;;;7.47;;
9449;SDS011;4763;48.370;10.874;2024-03-22T09:42:33;15.57;;;8.13;;
9449;SDS011;4763;48.370;10.874;2024-03-22T09:45:06;10.50;;;8.33;;
9449;SDS011;4763;48.370;10.874;2024-03-22T09:47:34;10.73;;;7.60;;
9449;SDS011;4763;48.370;10.874;2024-03-22T09:50:02;12.27;;;7.97;;
9449;SDS011;4763;48.370;10.874;2024-03-22T09:55:00;10.37;;;7.67;;
9449;SDS011;4763;48.370;10.874;2024-03-22T09:57:29;10.43;;;7.73;;
9449;SDS011;4763;48.370;10.874;2024-03-22T09:59:57;11.13;;;7.53;;
9449;SDS011;4763;48.370;10.874;2024-03-22T10:02:28;8.80;;;7.57;;
9449;SDS011;4763;48.370;10.874;2024-03-22T10:04:56;11.40;;;7.43;;
9449;SDS011;4763;48.370;10.874;2024-03-22T10:07:23;9.07;;;7.20;;
9449;SDS011;4763;48.370;10.874;2024-03-22T10:09:51;13.67;;;7.27;;
9449;SDS011;4763;48.370;10.874;2024-03-22T10:12:18;9.53;;;7.10;;
9449;SDS011;4763;48.370;10.874;2024-03-22T10:14:45;10.20;;;7.37;;
9449;SDS011;4763;48.370;10.874;2024-03-22T10:17:15;10.53;;;7.23;;
9449;SDS011;4763;48.370;10.874;2024-03-22T10:19:43;12.27;;;8.00;;
9449;SDS011;4763;48.370;10.874;2024-03-22T10:24:42;11.27;;;6.70;;
9449;SDS011;4763;48.370;10.874;2024-03-22T10:27:10;10.30;;;7.67;;
9449;SDS011;4763;48.370;10.874;2024-03-22T10:29:37;18.23;;;8.00;;
9449;SDS011;4763;48.370;10.874;2024-03-22T10:32:04;9.30;;;7.57;;
9449;SDS011;4763;48.370;10.874;2024-03-22T10:34:32;9.07;;;7.10;;
9449;SDS011;4763;48.370;10.874;2024-03-22T10:37:01;9.50;;;6.77;;
9449;SDS011;4763;48.370;10.874;2024-03-22T10:39:29;10.33;;;7.03;;
9449;SDS011;4763;48.370;10.874;2024-03-22T10:41:57;9.23;;;6.83;;
9449;SDS011;4763;48.370;10.874;2024-03-22T10:44:24;12.50;;;7.23;;
9449;SDS011;4763;48.370;10.874;2024-03-22T10:46:51;9.33;;;6.20;;
9449;SDS011;4763;48.370;10.874;2024-03-22T10:49:24;10.57;;;6.70;;
9449;SDS011;4763;48.370;10.874;2024-03-22T10:57:13;9.40;;;5.77;;
9449;SDS011;4763;48.370;10.874;2024-03-22T10:59:43;7.97;;;5.30;;
9449;SDS011;4763;48.370;10.874;2024-03-22T11:02:10;8.40;;;5.57;;
9449;SDS011;4763;48.370;10.874;2024-03-22T11:04:37;8.53;;;5.63;;
9449;SDS011;4763;48.370;10.874;2024-03-22T11:07:04;8.27;;;5.30;;
9449;SDS011;4763;48.370;10.874;2024-03-22T11:09:32;7.07;;;5.70;;
9449;SDS011;4763;48.370;10.874;2024-03-22T11:11:59;6.57;;;5.47;;
9449;SDS011;4763;48.370;10.874;2024-03-22T11:14:27;6.87;;;4.60;;
9449;SDS011;4763;48.370;10.874;2024-03-22T11:16:54;8.93;;;5.57;;
9449;SDS011;4763;48.370;10.874;2024-03-22T11:19:21;7.47;;;4.60;;
9449;SDS011;4763;48.370;10.874;2024-03-22T11:21:47;7.57;;;4.93;;
9449;SDS011;4763;48.370;10.874;2024-03-22T11:24:17;9.07;;;5.40;;
9449;SDS011;4763;48.370;10.874;2024-03-22T11:26:43;8.63;;;5.17;;
9449;SDS011;4763;48.370;10.874;2024-03-22T11:29:10;7.80;;;4.70;;
9449;SDS011;4763;48.370;10.874;2024-03-22T11:31:41;6.37;;;4.60;;
9449;SDS011;4763;48.370;10.874;2024-03-22T11:34:09;8.43;;;4.73;;
9449;SDS011;4763;48.370;10.874;2024-03-22T11:36:37;7.50;;;4.35;;
9449;SDS011;4763;48.370;10.874;2024-03-22T11:39:04;5.13;;;4.17;;
9449;SDS011;4763;48.370;10.874;2024-03-22T11:41:30;6.60;;;4.60;;
9449;SDS011;4763;48.370;10.874;2024-03-22T11:43:58;5.20;;;4.70;;
9449;SDS011;4763;48.370;10.874;2024-03-22T11:46:28;4.78;;;4.20;;
9449;SDS011;4763;48.370;10.874;2024-03-22T11:48:57;6.25;;;4.30;;
9449;SDS011;4763;48.370;10.874;2024-03-22T11:51:24;6.15;;;4.10;;
9449;SDS011;4763;48.370;10.874;2024-03-22T11:53:52;5.45;;;4.28;;
9449;SDS011;4763;48.370;10.874;2024-03-22T11:56:21;5.78;;;4.40;;
9449;SDS011;4763;48.370;10.874;2024-03-22T11:58:48;4.97;;;4.00;;
9449;SDS011;4763;48.370;10.874;2024-03-22T12:03:58;6.70;;;4.57;;
9449;SDS011;4763;48.370;10.874;2024-03-22T12:06:25;7.00;;;4.45;;
9449;SDS011;4763;48.370;10.874;2024-03-22T12:08:51;10.88;;;4.70;;
9449;SDS011;4763;48.370;10.874;2024-03-22T12:11:21;6.97;;;4.55;;
9449;SDS011;4763;48.370;10.874;2024-03-22T12:13:49;4.70;;;3.72;;
9449;SDS011;4763;48.370;10.874;2024-03-22T12:16:20;6.55;;;4.00;;
9449;SDS011;4763;48.370;10.874;2024-03-22T12:18:48;5.60;;;4.05;;
9449;SDS011;4763;48.370;10.874;2024-03-22T12:21:17;4.40;;;3.70;;
9449;SDS011;4763;48.370;10.874;2024-03-22T12:23:43;5.18;;;3.45;;
9449;SDS011;4763;48.370;10.874;2024-03-22T12:26:13;5.80;;;3.75;;
9449;SDS011;4763;48.370;10.874;2024-03-22T12:28:39;6.15;;;4.03;;
9449;SDS011;4763;48.370;10.874;2024-03-22T12:31:07;6.63;;;4.22;;
9449;SDS011;4763;48.370;10.874;2024-03-22T12:33:37;5.45;;;4.18;;
9449;SDS011;4763;48.370;10.874;2024-03-22T12:36:04;3.72;;;3.30;;
9449;SDS011;4763;48.370;10.874;2024-03-22T12:38:39;6.78;;;4.10;;
9449;SDS011;4763;48.370;10.874;2024-03-22T12:41:07;4.72;;;3.75;;
9449;SDS011;4763;48.370;10.874;2024-03-22T12:43:33;5.97;;;3.70;;
9449;SDS011;4763;48.370;10.874;2024-03-22T12:46:01;4.40;;;3.45;;
9449;SDS011;4763;48.370;10.874;2024-03-22T12:48:28;5.03;;;3.65;;
9449;SDS011;4763;48.370;10.874;2024-03-22T12:50:58;5.18;;;3.30;;
9449;SDS011;4763;48.370;10.874;2024-03-22T12:53:27;6.80;;;3.45;;
9449;SDS011;4763;48.370;10.874;2024-03-22T12:55:55;4.10;;;3.50;;
9449;SDS011;4763;48.370;10.874;2024-03-22T12:58:22;5.63;;;3.45;;
9449;SDS011;4763;48.370;10.874;2024-03-22T13:00:49;4.50;;;3.45;;
9449;SDS011;4763;48.370;10.874;2024-03-22T13:03:15;5.05;;;3.85;;
9449;SDS011;4763;48.370;10.874;2024-03-22T13:05:42;5.03;;;3.15;;
9449;SDS011;4763;48.370;10.874;2024-03-22T13:08:09;5.50;;;3.55;;
9449;SDS011;4763;48.370;10.874;2024-03-22T13:10:38;3.90;;;3.17;;
9449;SDS011;4763;48.370;10.874;2024-03-22T13:13:09;6.30;;;3.60;;
9449;SDS011;4763;48.370;10.874;2024-03-22T13:15:38;5.00;;;3.33;;
9449;SDS011;4763;48.370;10.874;2024-03-22T13:18:04;4.55;;;3.28;;
9449;SDS011;4763;48.370;10.874;2024-03-22T13:20:31;4.28;;;3.42;;
9449;SDS011;4763;48.370;10.874;2024-03-22T13:22:58;7.07;;;3.63;;
9449;SDS011;4763;48.370;10.874;2024-03-22T13:25:26;7.75;;;3.80;;
9449;SDS011;4763;48.370;10.874;2024-03-22T13:27:53;4.18;;;3.42;;
9449;SDS011;4763;48.370;10.874;2024-03-22T13:30:21;6.13;;;3.50;;
9449;SDS011;4763;48.370;10.874;2024-03-22T13:32:50;4.70;;;3.13;;
9449;SDS011;4763;48.370;10.874;2024-03-22T13:35:18;4.78;;;3.55;;
9449;SDS011;4763;48.370;10.874;2024-03-22T13:37:44;5.78;;;3.33;;
9449;SDS011;4763;48.370;10.874;2024-03-22T13:40:11;6.88;;;3.25;;
9449;SDS011;4763;48.370;10.874;2024-03-22T13:42:37;6.05;;;2.80;;
9449;SDS011;4763;48.370;10.874;2024-03-22T13:45:07;4.07;;;3.08;;
9449;SDS011;4763;48.370;10.874;2024-03-22T13:47:35;3.72;;;2.88;;
9449;SDS011;4763;48.370;10.874;2024-03-22T13:50:02;3.75;;;2.75;;
9449;SDS011;4763;48.370;10.874;2024-03-22T13:57:43;3.00;;;2.50;;
9449;SDS011;4763;48.370;10.874;2024-03-22T14:00:11;2.22;;;1.73;;
9449;SDS011;4763;48.370;10.874;2024-03-22T14:02:41;3.65;;;2.33;;
9449;SDS011;4763;48.370;10.874;2024-03-22T14:05:09;7.43;;;2.15;;
9449;SDS011;4763;48.370;10.874;2024-03-22T14:07:39;2.67;;;1.90;;
9449;SDS011;4763;48.370;10.874;2024-03-22T14:10:06;2.88;;;2.17;;
9449;SDS011;4763;48.370;10.874;2024-03-22T14:15:09;2.03;;;1.83;;
9449;SDS011;4763;48.370;10.874;2024-03-22T14:17:36;3.05;;;2.03;;
9449;SDS011;4763;48.370;10.874;2024-03-22T14:20:05;2.58;;;2.08;;
9449;SDS011;4763;48.370;10.874;2024-03-22T14:22:39;2.83;;;2.13;;
9449;SDS011;4763;48.370;10.874;2024-03-22T14:25:06;3.38;;;2.20;;
9449;SDS011;4763;48.370;10.874;2024-03-22T14:27:34;3.83;;;1.85;;
9449;SDS011;4763;48.370;10.874;2024-03-22T14:30:01;2.78;;;1.75;;
9449;SDS011;4763;48.370;10.874;2024-03-22T14:32:31;5.00;;;2.03;;
9449;SDS011;4763;48.370;10.874;2024-03-22T14:34:57;2.92;;;1.75;;
9449;SDS011;4763;48.370;10.874;2024-03-22T14:37:26;2.97;;;2.38;;
9449;SDS011;4763;48.370;10.874;2024-03-22T14:39:53;3.45;;;1.90;;
9449;SDS011;4763;48.370;10.874;2024-03-22T14:42:20;3.20;;;1.98;;
9449;SDS011;4763;48.370;10.874;2024-03-22T14:44:46;3.38;;;2.20;;
9449;SDS011;4763;48.370;10.874;2024-03-22T14:47:13;2.10;;;1.90;;
9449;SDS011;4763;48.370;10.874;2024-03-22T14:49:39;2.92;;;2.05;;
9449;SDS011;4763;48.370;10.874;2024-03-22T14:52:08;2.42;;;2.13;;
9449;SDS011;4763;48.370;10.874;2024-03-22T14:54:35;5.00;;;2.33;;
9449;SDS011;4763;48.370;10.874;2024-03-22T14:57:02;2.85;;;2.22;;
9449;SDS011;4763;48.370;10.874;2024-03-22T14:59:29;5.03;;;2.40;;
9449;SDS011;4763;48.370;10.874;2024-03-22T15:02:10;3.55;;;2.33;;
9449;SDS011;4763;48.370;10.874;2024-03-22T15:04:39;2.22;;;1.58;;
9449;SDS011;4763;48.370;10.874;2024-03-22T15:07:08;2.80;;;2.13;;
9449;SDS011;4763;48.370;10.874;2024-03-22T15:09:35;2.05;;;1.58;;
9449;SDS011;4763;48.370;10.874;2024-03-22T15:12:01;3.63;;;2.05;;
9449;SDS011;4763;48.370;10.874;2024-03-22T15:14:28;4.15;;;2.05;;
9449;SDS011;4763;48.370;10.874;2024-03-22T15:16:54;2.28;;;1.98;;
9449;SDS011;4763;48.370;10.874;2024-03-22T15:19:22;5.15;;;2.30;;
9449;SDS011;4763;48.370;10.874;2024-03-22T15:21:48;2.15;;;1.83;;
9449;SDS011;4763;48.370;10.874;2024-03-22T15:24:15;2.13;;;1.52;;
9449;SDS011;4763;48.370;10.874;2024-03-22T15:26:41;4.13;;;1.80;;
9449;SDS011;4763;48.370;10.874;2024-03-22T15:29:08;3.20;;;2.00;;
9449;SDS011;4763;48.370;10.874;2024-03-22T15:31:34;3.95;;;2.40;;
9449;SDS011;4763;48.370;10.874;2024-03-22T15:34:00;2.17;;;1.83;;
9449;SDS011;4763;48.370;10.874;2024-03-22T15:36:28;3.03;;;1.88;;
9449;SDS011;4763;48.370;10.874;2024-03-22T15:38:55;2.38;;;1.60;;
9449;SDS011;4763;48.370;10.874;2024-03-22T15:41:21;3.38;;;1.65;;
9449;SDS011;4763;48.370;10.874;2024-03-22T15:43:48;3.80;;;1.75;;
9449;SDS011;4763;48.370;10.874;2024-03-22T15:46:13;1.67;;;1.40;;
9449;SDS011;4763;48.370;10.874;2024-03-22T15:48:41;3.63;;;1.50;;
9449;SDS011;4763;48.370;10.874;2024-03-22T15:51:07;2.95;;;1.60;;
9449;SDS011;4763;48.370;10.874;2024-03-22T15:53:35;4.25;;;1.50;;
9449;SDS011;4763;48.370;10.874;2024-03-22T15:56:00;1.95;;;1.60;;
9449;SDS011;4763;48.370;10.874;2024-03-22T15:58:28;2.35;;;1.40;;
9449;SDS011;4763;48.370;10.874;2024-03-22T16:00:55;3.47;;;1.83;;
9449;SDS011;4763;48.370;10.874;2024-03-22T16:03:22;2.58;;;1.90;;
9449;SDS011;4763;48.370;10.874;2024-03-22T16:05:48;6.57;;;1.67;;
9449;SDS011;4763;48.370;10.874;2024-03-22T16:08:16;2.67;;;1.55;;
9449;SDS011;4763;48.370;10.874;2024-03-22T16:10:46;6.80;;;1.95;;
9449;SDS011;4763;48.370;10.874;2024-03-22T16:13:13;1.70;;;1.50;;
9449;SDS011;4763;48.370;10.874;2024-03-22T16:15:39;3.65;;;1.75;;
9449;SDS011;4763;48.370;10.874;2024-03-22T16:18:07;1.40;;;1.30;;
9449;SDS011;4763;48.370;10.874;2024-03-22T16:20:35;2.22;;;1.50;;
9449;SDS011;4763;48.370;10.874;2024-03-22T16:23:03;3.50;;;1.50;;
9449;SDS011;4763;48.370;10.874;2024-03-22T16:25:32;4.85;;;1.65;;
9449;SDS011;4763;48.370;10.874;2024-03-22T16:28:01;1.33;;;1.10;;
9449;SDS011;4763;48.370;10.874;2024-03-22T16:30:27;1.77;;;1.48;;
9449;SDS011;4763;48.370;10.874;2024-03-22T16:32:53;2.53;;;1.85;;
9449;SDS011;4763;48.370;10.874;2024-03-22T16:35:19;1.77;;;1.42;;
9449;SDS011;4763;48.370;10.874;2024-03-22T16:37:46;2.92;;;1.50;;
9449;SDS011;4763;48.370;10.874;2024-03-22T16:40:12;3.08;;;1.50;;
9449;SDS011;4763;48.370;10.874;2024-03-22T16:42:43;3.35;;;1.52;;
9449;SDS011;4763;48.370;10.874;2024-03-22T16:45:11;2.90;;;1.83;;
9449;SDS011;4763;48.370;10.874;2024-03-22T16:47:39;3.07;;;2.00;;
9449;SDS011;4763;48.370;10.874;2024-03-22T16:50:06;4.07;;;1.70;;
9449;SDS011;4763;48.370;10.874;2024-03-22T16:52:35;2.73;;;1.80;;
9449;SDS011;4763;48.370;10.874;2024-03-22T16:55:01;1.67;;;1.57;;
9449;SDS011;4763;48.370;10.874;2024-03-22T16:57:28;5.33;;;1.93;;
9449;SDS011;4763;48.370;10.874;2024-03-22T16:59:54;5.07;;;1.90;;
9449;SDS011;4763;48.370;10.874;2024-03-22T17:02:22;2.00;;;1.53;;
9449;SDS011;4763;48.370;10.874;2024-03-22T17:04:47;2.13;;;1.70;;
9449;SDS011;4763;48.370;10.874;2024-03-22T17:07:14;2.17;;;1.73;;
9449;SDS011;4763;48.370;10.874;2024-03-22T17:09:41;2.50;;;2.03;;
9449;SDS011;4763;48.370;10.874;2024-03-22T17:12:16;3.37;;;1.70;;
9449;SDS011;4763;48.370;10.874;2024-03-22T17:14:42;6.17;;;4.37;;
9449;SDS011;4763;48.370;10.874;2024-03-22T17:17:09;3.83;;;1.60;;
9449;SDS011;4763;48.370;10.874;2024-03-22T17:19:37;1.97;;;1.70;;
9449;SDS011;4763;48.370;10.874;2024-03-22T17:22:04;4.20;;;2.00;;
9449;SDS011;4763;48.370;10.874;2024-03-22T17:24:30;2.30;;;2.00;;
9449;SDS011;4763;48.370;10.874;2024-03-22T17:26:57;3.77;;;1.40;;
9449;SDS011;4763;48.370;10.874;2024-03-22T17:29:23;3.70;;;2.40;;
9449;SDS011;4763;48.370;10.874;2024-03-22T17:31:50;5.27;;;2.80;;
9449;SDS011;4763;48.370;10.874;2024-03-22T17:34:15;4.63;;;2.60;;
9449;SDS011;4763;48.370;10.874;2024-03-22T17:37:03;4.87;;;2.80;;
9449;SDS011;4763;48.370;10.874;2024-03-22T17:39:30;8.17;;;3.77;;
9449;SDS011;4763;48.370;10.874;2024-03-22T17:41:56;8.03;;;3.67;;
9449;SDS011;4763;48.370;10.874;2024-03-22T17:44:23;5.27;;;3.30;;
9449;SDS011;4763;48.370;10.874;2024-03-22T17:46:49;5.30;;;2.53;;
9449;SDS011;4763;48.370;10.874;2024-03-22T17:49:16;6.40;;;2.90;;
9449;SDS011;4763;48.370;10.874;2024-03-22T17:51:44;4.30;;;2.50;;
9449;SDS011;4763;48.370;10.874;2024-03-22T17:54:13;7.73;;;3.10;;
9449;SDS011;4763;48.370;10.874;2024-03-22T17:56:39;6.87;;;2.90;;
9449;SDS011;4763;48.370;10.874;2024-03-22T17:59:07;5.90;;;3.90;;
9449;SDS011;4763;48.370;10.874;2024-03-22T18:01:33;7.57;;;3.83;;
9449;SDS011;4763;48.370;10.874;2024-03-22T18:04:00;7.23;;;4.33;;
9449;SDS011;4763;48.370;10.874;2024-03-22T18:06:26;6.07;;;3.70;;
9449;SDS011;4763;48.370;10.874;2024-03-22T18:08:53;6.87;;;4.07;;
9449;SDS011;4763;48.370;10.874;2024-03-22T18:11:20;7.43;;;4.30;;
9449;SDS011;4763;48.370;10.874;2024-03-22T18:13:47;7.40;;;4.17;;
9449;SDS011;4763;48.370;10.874;2024-03-22T18:16:13;7.60;;;3.83;;
9449;SDS011;4763;48.370;10.874;2024-03-22T18:18:40;8.82;;;4.55;;
9449;SDS011;4763;48.370;10.874;2024-03-22T18:21:06;9.33;;;4.60;;
9449;SDS011;4763;48.370;10.874;2024-03-22T18:23:33;12.77;;;5.27;;
9449;SDS011;4763;48.370;10.874;2024-03-22T18:25:59;7.37;;;4.40;;
9449;SDS011;4763;48.370;10.874;2024-03-22T18:28:27;6.93;;;4.57;;
9449;SDS011;4763;48.370;10.874;2024-03-22T18:30:53;6.87;;;3.80;;
9449;SDS011;4763;48.370;10.874;2024-03-22T18:33:20;7.63;;;4.23;;
9449;SDS011;4763;48.370;10.874;2024-03-22T18:35:46;6.93;;;4.10;;
9449;SDS011;4763;48.370;10.874;2024-03-22T18:38:13;6.17;;;4.13;;
9449;SDS011;4763;48.370;10.874;2024-03-22T18:40:39;6.17;;;4.03;;
9449;SDS011;4763;48.370;10.874;2024-03-22T18:43:06;5.57;;;3.60;;
9449;SDS011;4763;48.370;10.874;2024-03-22T18:45:33;5.40;;;3.60;;
9449;SDS011;4763;48.370;10.874;2024-03-22T18:48:00;5.33;;;3.03;;
9449;SDS011;4763;48.370;10.874;2024-03-22T18:50:26;6.63;;;3.30;;
9449;SDS011;4763;48.370;10.874;2024-03-22T18:52:53;5.80;;;3.70;;
9449;SDS011;4763;48.370;10.874;2024-03-22T18:55:19;6.27;;;3.70;;
9449;SDS011;4763;48.370;10.874;2024-03-22T18:57:46;9.30;;;3.53;;
9449;SDS011;4763;48.370;10.874;2024-03-22T19:00:12;7.37;;;3.07;;
9449;SDS011;4763;48.370;10.874;2024-03-22T19:02:40;6.13;;;3.63;;
9449;SDS011;4763;48.370;10.874;2024-03-22T19:05:07;5.37;;;4.00;;
9449;SDS011;4763;48.370;10.874;2024-03-22T19:07:33;8.10;;;4.40;;
9449;SDS011;4763;48.370;10.874;2024-03-22T19:09:59;6.87;;;4.23;;
9449;SDS011;4763;48.370;10.874;2024-03-22T19:12:27;8.13;;;4.53;;
9449;SDS011;4763;48.370;10.874;2024-03-22T19:14:55;5.70;;;4.53;;
9449;SDS011;4763;48.370;10.874;2024-03-22T19:17:22;6.63;;;4.90;;
9449;SDS011;4763;48.370;10.874;2024-03-22T19:19:50;10.50;;;4.97;;
9449;SDS011;4763;48.370;10.874;2024-03-22T19:22:19;6.63;;;4.57;;
9449;SDS011;4763;48.370;10.874;2024-03-22T19:24:45;9.20;;;4.23;;
9449;SDS011;4763;48.370;10.874;2024-03-22T19:27:12;6.77;;;4.70;;
9449;SDS011;4763;48.370;10.874;2024-03-22T19:29:40;10.13;;;5.43;;
9449;SDS011;4763;48.370;10.874;2024-03-22T19:32:07;8.27;;;5.20;;
9449;SDS011;4763;48.370;10.874;2024-03-22T19:34:34;7.33;;;4.67;;
9449;SDS011;4763;48.370;10.874;2024-03-22T19:37:04;8.13;;;4.87;;
9449;SDS011;4763;48.370;10.874;2024-03-22T19:39:33;6.57;;;4.67;;
9449;SDS011;4763;48.370;10.874;2024-03-22T19:42:00;5.87;;;4.53;;
9449;SDS011;4763;48.370;10.874;2024-03-22T19:44:26;4.90;;;4.20;;
9449;SDS011;4763;48.370;10.874;2024-03-22T19:46:53;10.13;;;4.90;;
9449;SDS011;4763;48.370;10.874;2024-03-22T19:49:20;8.27;;;5.07;;
9449;SDS011;4763;48.370;10.874;2024-03-22T19:51:47;8.97;;;4.70;;
9449;SDS011;4763;48.370;10.874;2024-03-22T19:54:18;9.10;;;4.80;;
